sensor_id;sensor_type;location;lat;lon;timestamp;temperature;humidity
15386;DHT22;7791;47.246;9.648;2024-03-02T00:02:09;7.60;99.90
15386;DHT22;7791;47.246;9.648;2024-03-02T00:05:38;7.60;99.90
15386;DHT22;7791;47.246;9.648;2024-03-02T00:10:18;7.50;99.90
15386;DHT22;7791;47.246;9.648;2024-03-02T00:12:58;7.50;99.90
15386;DHT22;7791;47.246;9.648;2024-03-02T00:15:48;7.50;99.90
15386;DHT22;7791;47.246;9.648;2024-03-02T00:18:39;7.50;99.90
15386;DHT22;7791;47.246;9.648;2024-03-02T00:27:26;7.50;99.90
15386;DHT22;7791;47.246;9.648;2024-03-02T00:30:00;7.40;99.90
15386;DHT22;7791;47.246;9.648;2024-03-02T00:35:34;7.50;99.90
15386;DHT22;7791;47.246;9.648;2024-03-02T00:38:05;7.50;99.90
15386;DHT22;7791;47.246;9.648;2024-03-02T00:40:50;7.40;99.90
15386;DHT22;7791;47.246;9.648;2024-03-02T00:43:45;7.40;99.90
15386;DHT22;7791;47.246;9.648;2024-03-02T00:46:20;7.50;99.90
15386;DHT22;7791;47.246;9.648;2024-03-02T00:49:16;7.40;99.90
15386;DHT22;7791;47.246;9.648;2024-03-02T00:51:59;7.40;99.90
15386;DHT22;7791;47.246;9.648;2024-03-02T00:54:41;7.30;99.90
15386;DHT22;7791;47.246;9.648;2024-03-02T00:57:41;7.30;99.90
15386;DHT22;7791;47.246;9.648;2024-03-02T01:03:01;7.30;99.90
15386;DHT22;7791;47.246;9.648;2024-03-02T01:05:36;7.30;99.90
15386;DHT22;7791;47.246;9.648;2024-03-02T01:08:29;7.30;99.90
15386;DHT22;7791;47.246;9.648;2024-03-02T01:11:16;7.30;99.90
15386;DHT22;7791;47.246;9.648;2024-03-02T01:13:47;7.40;99.90
15386;DHT22;7791;47.246;9.648;2024-03-02T01:16:28;7.30;99.90
15386;DHT22;7791;47.246;9.648;2024-03-02T01:18:59;7.30;99.90
15386;DHT22;7791;47.246;9.648;2024-03-02T01:21:33;7.30;99.90
15386;DHT22;7791;47.246;9.648;2024-03-02T01:24:19;7.30;99.90
15386;DHT22;7791;47.246;9.648;2024-03-02T01:26:57;7.20;99.90
15386;DHT22;7791;47.246;9.648;2024-03-02T01:29:33;7.20;99.90
15386;DHT22;7791;47.246;9.648;2024-03-02T01:32:07;7.20;99.90
15386;DHT22;7791;47.246;9.648;2024-03-02T01:34:41;7.10;99.90
15386;DHT22;7791;47.246;9.648;2024-03-02T01:37:19;7.10;99.90
15386;DHT22;7791;47.246;9.648;2024-03-02T01:39:59;7.10;99.90
15386;DHT22;7791;47.246;9.648;2024-03-02T01:42:30;7.10;99.90
15386;DHT22;7791;47.246;9.648;2024-03-02T01:45:15;7.20;99.90
15386;DHT22;7791;47.246;9.648;2024-03-02T01:47:57;7.20;99.90
15386;DHT22;7791;47.246;9.648;2024-03-02T01:50:44;7.20;99.90
15386;DHT22;7791;47.246;9.648;2024-03-02T01:53:15;7.10;99.90
15386;DHT22;7791;47.246;9.648;2024-03-02T01:55:57;7.10;99.90
15386;DHT22;7791;47.246;9.648;2024-03-02T02:01:27;7.10;99.90
15386;DHT22;7791;47.246;9.648;2024-03-02T02:04:18;7.10;99.90
15386;DHT22;7791;47.246;9.648;2024-03-02T02:06:47;7.00;99.90
15386;DHT22;7791;47.246;9.648;2024-03-02T02:09:37;7.00;99.90
15386;DHT22;7791;47.246;9.648;2024-03-02T02:12:22;7.10;99.90
15386;DHT22;7791;47.246;9.648;2024-03-02T02:14:58;7.10;99.90
15386;DHT22;7791;47.246;9.648;2024-03-02T02:17:25;7.10;99.90
15386;DHT22;7791;47.246;9.648;2024-03-02T02:23:00;7.10;99.90
15386;DHT22;7791;47.246;9.648;2024-03-02T02:25:35;7.00;99.90
15386;DHT22;7791;47.246;9.648;2024-03-02T02:28:11;7.10;99.90
15386;DHT22;7791;47.246;9.648;2024-03-02T02:30:58;7.10;99.90
15386;DHT22;7791;47.246;9.648;2024-03-02T02:33:24;7.10;99.90
15386;DHT22;7791;47.246;9.648;2024-03-02T02:35:59;6.90;99.90
15386;DHT22;7791;47.246;9.648;2024-03-02T02:38:47;6.90;99.90
15386;DHT22;7791;47.246;9.648;2024-03-02T02:41:25;6.90;99.90
15386;DHT22;7791;47.246;9.648;2024-03-02T02:44:09;6.80;99.90
15386;DHT22;7791;47.246;9.648;2024-03-02T02:47:14;6.80;99.90
15386;DHT22;7791;47.246;9.648;2024-03-02T02:49:43;6.70;99.90
15386;DHT22;7791;47.246;9.648;2024-03-02T02:52:12;6.60;99.90
15386;DHT22;7791;47.246;9.648;2024-03-02T02:54:55;6.70;99.90
15386;DHT22;7791;47.246;9.648;2024-03-02T02:57:23;6.70;99.90
15386;DHT22;7791;47.246;9.648;2024-03-02T03:00:09;6.80;99.90
15386;DHT22;7791;47.246;9.648;2024-03-02T03:02:48;6.80;99.90
15386;DHT22;7791;47.246;9.648;2024-03-02T03:05:20;6.90;99.90
15386;DHT22;7791;47.246;9.648;2024-03-02T03:08:12;6.90;99.90
15386;DHT22;7791;47.246;9.648;2024-03-02T03:10:51;6.80;99.90
15386;DHT22;7791;47.246;9.648;2024-03-02T03:13:21;6.90;99.90
15386;DHT22;7791;47.246;9.648;2024-03-02T03:16:03;6.80;99.90
15386;DHT22;7791;47.246;9.648;2024-03-02T03:18:34;6.80;99.90
15386;DHT22;7791;47.246;9.648;2024-03-02T03:21:21;6.80;99.90
15386;DHT22;7791;47.246;9.648;2024-03-02T03:24:01;6.80;99.90
15386;DHT22;7791;47.246;9.648;2024-03-02T03:26:53;6.80;99.90
15386;DHT22;7791;47.246;9.648;2024-03-02T03:29:29;6.70;99.90
15386;DHT22;7791;47.246;9.648;2024-03-02T03:32:06;6.70;99.90
15386;DHT22;7791;47.246;9.648;2024-03-02T03:37:42;6.70;99.90
15386;DHT22;7791;47.246;9.648;2024-03-02T03:40:15;6.60;99.90
15386;DHT22;7791;47.246;9.648;2024-03-02T03:43:00;6.50;99.90
15386;DHT22;7791;47.246;9.648;2024-03-02T03:45:28;6.50;99.90
15386;DHT22;7791;47.246;9.648;2024-03-02T03:48:02;6.40;99.90
15386;DHT22;7791;47.246;9.648;2024-03-02T03:50:36;6.40;99.90
15386;DHT22;7791;47.246;9.648;2024-03-02T03:53:08;6.20;99.90
15386;DHT22;7791;47.246;9.648;2024-03-02T03:55:52;6.00;99.90
15386;DHT22;7791;47.246;9.648;2024-03-02T03:58:42;5.90;99.90
15386;DHT22;7791;47.246;9.648;2024-03-02T04:01:23;5.80;99.90
15386;DHT22;7791;47.246;9.648;2024-03-02T04:06:52;5.60;99.90
15386;DHT22;7791;47.246;9.648;2024-03-02T04:09:38;5.60;99.90
15386;DHT22;7791;47.246;9.648;2024-03-02T04:12:17;5.60;99.90
15386;DHT22;7791;47.246;9.648;2024-03-02T04:14:59;5.60;99.90
15386;DHT22;7791;47.246;9.648;2024-03-02T04:17:36;5.60;99.90
15386;DHT22;7791;47.246;9.648;2024-03-02T04:20:07;5.50;99.90
15386;DHT22;7791;47.246;9.648;2024-03-02T04:25:34;5.50;99.90
15386;DHT22;7791;47.246;9.648;2024-03-02T04:28:07;5.50;99.90
15386;DHT22;7791;47.246;9.648;2024-03-02T04:30:42;5.50;99.90
15386;DHT22;7791;47.246;9.648;2024-03-02T04:33:12;5.50;99.90
15386;DHT22;7791;47.246;9.648;2024-03-02T04:35:45;5.40;99.90
15386;DHT22;7791;47.246;9.648;2024-03-02T04:38:21;5.40;99.90
15386;DHT22;7791;47.246;9.648;2024-03-02T04:40:56;5.30;99.90
15386;DHT22;7791;47.246;9.648;2024-03-02T04:43:35;5.30;99.90
15386;DHT22;7791;47.246;9.648;2024-03-02T04:46:13;5.30;99.90
15386;DHT22;7791;47.246;9.648;2024-03-02T04:48:44;5.30;99.90
15386;DHT22;7791;47.246;9.648;2024-03-02T04:51:15;5.30;99.90
15386;DHT22;7791;47.246;9.648;2024-03-02T04:53:55;5.30;99.90
15386;DHT22;7791;47.246;9.648;2024-03-02T04:56:28;5.30;99.90
15386;DHT22;7791;47.246;9.648;2024-03-02T05:01:53;5.00;99.90
15386;DHT22;7791;47.246;9.648;2024-03-02T05:04:22;4.90;99.90
15386;DHT22;7791;47.246;9.648;2024-03-02T05:09:30;4.90;99.90
15386;DHT22;7791;47.246;9.648;2024-03-02T05:12:11;4.90;99.90
15386;DHT22;7791;47.246;9.648;2024-03-02T05:14:57;4.90;99.90
15386;DHT22;7791;47.246;9.648;2024-03-02T05:17:42;4.90;99.90
15386;DHT22;7791;47.246;9.648;2024-03-02T05:20:15;4.80;99.90
15386;DHT22;7791;47.246;9.648;2024-03-02T05:22:53;4.80;99.90
15386;DHT22;7791;47.246;9.648;2024-03-02T05:25:35;4.80;99.90
15386;DHT22;7791;47.246;9.648;2024-03-02T05:28:10;4.80;99.90
15386;DHT22;7791;47.246;9.648;2024-03-02T05:30:47;4.80;99.90
15386;DHT22;7791;47.246;9.648;2024-03-02T05:36:18;4.80;99.90
15386;DHT22;7791;47.246;9.648;2024-03-02T05:38:54;4.70;99.90
15386;DHT22;7791;47.246;9.648;2024-03-02T05:41:34;4.70;99.90
15386;DHT22;7791;47.246;9.648;2024-03-02T05:44:09;4.70;99.90
15386;DHT22;7791;47.246;9.648;2024-03-02T05:46:37;4.70;99.90
15386;DHT22;7791;47.246;9.648;2024-03-02T05:49:06;4.60;99.90
15386;DHT22;7791;47.246;9.648;2024-03-02T05:51:53;4.70;99.90
15386;DHT22;7791;47.246;9.648;2024-03-02T05:54:27;4.60;99.90
15386;DHT22;7791;47.246;9.648;2024-03-02T05:57:07;4.60;99.90
15386;DHT22;7791;47.246;9.648;2024-03-02T05:59:39;4.60;99.90
15386;DHT22;7791;47.246;9.648;2024-03-02T06:02:29;4.60;99.90
15386;DHT22;7791;47.246;9.648;2024-03-02T06:04:59;4.60;99.90
15386;DHT22;7791;47.246;9.648;2024-03-02T06:07:32;4.60;99.90
15386;DHT22;7791;47.246;9.648;2024-03-02T06:10:02;4.60;99.90
15386;DHT22;7791;47.246;9.648;2024-03-02T06:12:37;4.70;99.90
15386;DHT22;7791;47.246;9.648;2024-03-02T06:15:11;4.80;99.90
15386;DHT22;7791;47.246;9.648;2024-03-02T06:17:44;4.90;99.90
15386;DHT22;7791;47.246;9.648;2024-03-02T06:20:29;4.90;99.90
15386;DHT22;7791;47.246;9.648;2024-03-02T06:23:17;5.00;99.90
15386;DHT22;7791;47.246;9.648;2024-03-02T06:25:52;5.10;99.90
15386;DHT22;7791;47.246;9.648;2024-03-02T06:31:26;4.90;99.90
15386;DHT22;7791;47.246;9.648;2024-03-02T06:33:56;4.90;99.90
15386;DHT22;7791;47.246;9.648;2024-03-02T06:36:29;4.90;99.90
15386;DHT22;7791;47.246;9.648;2024-03-02T06:41:51;4.70;99.90
15386;DHT22;7791;47.246;9.648;2024-03-02T06:44:24;4.80;99.90
15386;DHT22;7791;47.246;9.648;2024-03-02T06:47:12;4.90;99.90
15386;DHT22;7791;47.246;9.648;2024-03-02T06:49:45;5.00;99.90
15386;DHT22;7791;47.246;9.648;2024-03-02T06:52:16;4.90;99.90
15386;DHT22;7791;47.246;9.648;2024-03-02T06:54:46;5.00;99.90
15386;DHT22;7791;47.246;9.648;2024-03-02T06:57:29;5.10;99.90
15386;DHT22;7791;47.246;9.648;2024-03-02T07:00:02;5.10;99.90
15386;DHT22;7791;47.246;9.648;2024-03-02T07:02:35;5.10;99.90
15386;DHT22;7791;47.246;9.648;2024-03-02T07:05:15;5.40;99.90
15386;DHT22;7791;47.246;9.648;2024-03-02T07:07:56;5.60;99.90
15386;DHT22;7791;47.246;9.648;2024-03-02T07:10:33;5.90;99.90
15386;DHT22;7791;47.246;9.648;2024-03-02T07:15:52;6.40;99.90
15386;DHT22;7791;47.246;9.648;2024-03-02T07:18:23;6.60;99.90
15386;DHT22;7791;47.246;9.648;2024-03-02T07:20:50;6.80;99.90
15386;DHT22;7791;47.246;9.648;2024-03-02T07:23:21;7.00;99.90
15386;DHT22;7791;47.246;9.648;2024-03-02T07:28:49;7.10;99.90
15386;DHT22;7791;47.246;9.648;2024-03-02T07:31:24;7.30;99.90
15386;DHT22;7791;47.246;9.648;2024-03-02T07:34:03;7.50;99.90
15386;DHT22;7791;47.246;9.648;2024-03-02T07:36:42;7.50;99.90
15386;DHT22;7791;47.246;9.648;2024-03-02T07:39:19;7.90;99.90
15386;DHT22;7791;47.246;9.648;2024-03-02T07:41:50;8.10;99.90
15386;DHT22;7791;47.246;9.648;2024-03-02T07:44:22;8.60;99.90
15386;DHT22;7791;47.246;9.648;2024-03-02T07:46:53;8.90;99.90
15386;DHT22;7791;47.246;9.648;2024-03-02T07:49:30;9.20;99.90
15386;DHT22;7791;47.246;9.648;2024-03-02T07:52:01;9.30;99.90
15386;DHT22;7791;47.246;9.648;2024-03-02T07:54:40;9.20;99.90
15386;DHT22;7791;47.246;9.648;2024-03-02T07:57:09;9.50;99.90
15386;DHT22;7791;47.246;9.648;2024-03-02T07:59:44;9.70;99.90
15386;DHT22;7791;47.246;9.648;2024-03-02T08:02:11;10.00;99.90
15386;DHT22;7791;47.246;9.648;2024-03-02T08:05:03;10.00;99.90
15386;DHT22;7791;47.246;9.648;2024-03-02T08:07:46;10.00;99.90
15386;DHT22;7791;47.246;9.648;2024-03-02T08:13:23;9.80;99.90
15386;DHT22;7791;47.246;9.648;2024-03-02T08:15:54;9.90;99.90
15386;DHT22;7791;47.246;9.648;2024-03-02T08:18:35;9.70;99.90
15386;DHT22;7791;47.246;9.648;2024-03-02T08:21:21;9.80;99.90
15386;DHT22;7791;47.246;9.648;2024-03-02T08:26:50;9.60;99.90
15386;DHT22;7791;47.246;9.648;2024-03-02T08:29:25;9.50;99.90
15386;DHT22;7791;47.246;9.648;2024-03-02T08:32:04;9.60;99.90
15386;DHT22;7791;47.246;9.648;2024-03-02T08:34:40;9.70;99.90
15386;DHT22;7791;47.246;9.648;2024-03-02T08:37:17;9.80;99.90
15386;DHT22;7791;47.246;9.648;2024-03-02T08:39:58;10.00;99.90
15386;DHT22;7791;47.246;9.648;2024-03-02T08:42:29;10.30;99.90
15386;DHT22;7791;47.246;9.648;2024-03-02T08:45:14;10.80;99.90
15386;DHT22;7791;47.246;9.648;2024-03-02T08:47:41;11.40;99.90
15386;DHT22;7791;47.246;9.648;2024-03-02T08:50:16;12.30;99.90
15386;DHT22;7791;47.246;9.648;2024-03-02T08:52:54;13.20;99.90
15386;DHT22;7791;47.246;9.648;2024-03-02T08:55:40;14.00;99.90
15386;DHT22;7791;47.246;9.648;2024-03-02T08:58:16;14.90;99.90
15386;DHT22;7791;47.246;9.648;2024-03-02T09:01:04;15.20;99.90
15386;DHT22;7791;47.246;9.648;2024-03-02T09:03:51;15.00;99.90
15386;DHT22;7791;47.246;9.648;2024-03-02T09:06:26;15.30;99.90
15386;DHT22;7791;47.246;9.648;2024-03-02T09:08:57;15.50;99.90
15386;DHT22;7791;47.246;9.648;2024-03-02T09:11:37;15.70;99.90
15386;DHT22;7791;47.246;9.648;2024-03-02T09:14:18;16.00;99.90
15386;DHT22;7791;47.246;9.648;2024-03-02T09:17:06;16.20;99.90
15386;DHT22;7791;47.246;9.648;2024-03-02T09:19:43;16.60;99.90
15386;DHT22;7791;47.246;9.648;2024-03-02T09:24:52;17.60;99.90
15386;DHT22;7791;47.246;9.648;2024-03-02T09:27:37;18.10;99.90
15386;DHT22;7791;47.246;9.648;2024-03-02T09:30:30;18.20;99.90
15386;DHT22;7791;47.246;9.648;2024-03-02T09:33:11;18.50;99.90
15386;DHT22;7791;47.246;9.648;2024-03-02T09:35:40;18.50;99.90
15386;DHT22;7791;47.246;9.648;2024-03-02T09:38:15;18.00;99.90
15386;DHT22;7791;47.246;9.648;2024-03-02T09:40:54;17.90;99.90
15386;DHT22;7791;47.246;9.648;2024-03-02T09:43:27;17.60;99.90
15386;DHT22;7791;47.246;9.648;2024-03-02T09:46:04;17.60;99.90
15386;DHT22;7791;47.246;9.648;2024-03-02T09:48:48;17.20;99.90
15386;DHT22;7791;47.246;9.648;2024-03-02T09:51:17;16.50;99.90
15386;DHT22;7791;47.246;9.648;2024-03-02T09:53:52;16.10;99.90
15386;DHT22;7791;47.246;9.648;2024-03-02T09:56:40;16.10;99.90
15386;DHT22;7791;47.246;9.648;2024-03-02T09:59:09;15.90;99.90
15386;DHT22;7791;47.246;9.648;2024-03-02T10:01:41;15.40;99.90
15386;DHT22;7791;47.246;9.648;2024-03-02T10:04:31;15.00;99.90
15386;DHT22;7791;47.246;9.648;2024-03-02T10:07:17;14.90;99.90
15386;DHT22;7791;47.246;9.648;2024-03-02T10:12:49;14.50;99.90
15386;DHT22;7791;47.246;9.648;2024-03-02T10:15:40;14.50;99.90
15386;DHT22;7791;47.246;9.648;2024-03-02T10:18:15;14.20;99.90
15386;DHT22;7791;47.246;9.648;2024-03-02T10:20:56;13.90;99.90
15386;DHT22;7791;47.246;9.648;2024-03-02T10:23:51;14.10;99.90
15386;DHT22;7791;47.246;9.648;2024-03-02T10:26:32;13.90;99.90
15386;DHT22;7791;47.246;9.648;2024-03-02T10:29:02;14.30;99.90
15386;DHT22;7791;47.246;9.648;2024-03-02T10:31:35;14.40;99.90
15386;DHT22;7791;47.246;9.648;2024-03-02T10:34:05;14.70;99.90
15386;DHT22;7791;47.246;9.648;2024-03-02T10:36:44;15.10;99.90
15386;DHT22;7791;47.246;9.648;2024-03-02T10:39:13;15.20;99.90
15386;DHT22;7791;47.246;9.648;2024-03-02T10:42:00;15.10;99.90
15386;DHT22;7791;47.246;9.648;2024-03-02T10:44:35;15.20;99.90
15386;DHT22;7791;47.246;9.648;2024-03-02T10:47:14;14.90;99.90
15386;DHT22;7791;47.246;9.648;2024-03-02T10:49:55;15.20;99.90
15386;DHT22;7791;47.246;9.648;2024-03-02T10:52:37;16.60;99.90
15386;DHT22;7791;47.246;9.648;2024-03-02T10:55:12;18.20;99.90
15386;DHT22;7791;47.246;9.648;2024-03-02T10:58:07;18.70;99.90
15386;DHT22;7791;47.246;9.648;2024-03-02T11:00:46;19.30;99.90
15386;DHT22;7791;47.246;9.648;2024-03-02T11:03:12;19.00;99.90
15386;DHT22;7791;47.246;9.648;2024-03-02T11:05:48;19.20;99.90
15386;DHT22;7791;47.246;9.648;2024-03-02T11:08:29;19.50;99.90
15386;DHT22;7791;47.246;9.648;2024-03-02T11:11:11;19.40;99.90
15386;DHT22;7791;47.246;9.648;2024-03-02T11:13:56;19.70;99.90
15386;DHT22;7791;47.246;9.648;2024-03-02T11:16:37;19.40;99.90
15386;DHT22;7791;47.246;9.648;2024-03-02T11:19:08;18.70;99.90
15386;DHT22;7791;47.246;9.648;2024-03-02T11:21:57;18.50;99.90
15386;DHT22;7791;47.246;9.648;2024-03-02T11:24:39;18.80;99.90
15386;DHT22;7791;47.246;9.648;2024-03-02T11:30:55;19.40;99.50
15386;DHT22;7791;47.246;9.648;2024-03-02T11:41:45;19.90;97.70
15386;DHT22;7791;47.246;9.648;2024-03-02T11:44:30;19.70;97.90
15386;DHT22;7791;47.246;9.648;2024-03-02T11:47:10;19.30;97.30
15386;DHT22;7791;47.246;9.648;2024-03-02T11:49:55;19.50;97.30
15386;DHT22;7791;47.246;9.648;2024-03-02T11:52:29;19.50;97.50
15386;DHT22;7791;47.246;9.648;2024-03-02T11:55:18;19.80;98.10
15386;DHT22;7791;47.246;9.648;2024-03-02T11:57:50;20.50;96.50
15386;DHT22;7791;47.246;9.648;2024-03-02T12:03:13;21.80;96.40
15386;DHT22;7791;47.246;9.648;2024-03-02T12:05:57;21.50;96.90
15386;DHT22;7791;47.246;9.648;2024-03-02T12:08:29;20.40;96.70
15386;DHT22;7791;47.246;9.648;2024-03-02T12:11:04;20.40;97.20
15386;DHT22;7791;47.246;9.648;2024-03-02T12:13:53;21.30;95.60
15386;DHT22;7791;47.246;9.648;2024-03-02T12:16:27;21.60;93.90
15386;DHT22;7791;47.246;9.648;2024-03-02T12:19:02;21.30;95.10
15386;DHT22;7791;47.246;9.648;2024-03-02T12:21:45;20.30;96.20
15386;DHT22;7791;47.246;9.648;2024-03-02T12:24:24;19.50;97.30
15386;DHT22;7791;47.246;9.648;2024-03-02T12:27:07;19.50;98.00
15386;DHT22;7791;47.246;9.648;2024-03-02T12:29:49;20.00;96.80
15386;DHT22;7791;47.246;9.648;2024-03-02T12:32:28;20.50;94.90
15386;DHT22;7791;47.246;9.648;2024-03-02T12:35:15;20.00;94.00
15386;DHT22;7791;47.246;9.648;2024-03-02T12:37:50;20.20;93.00
15386;DHT22;7791;47.246;9.648;2024-03-02T12:40:30;20.20;93.00
15386;DHT22;7791;47.246;9.648;2024-03-02T12:44:11;20.20;92.90
15386;DHT22;7791;47.246;9.648;2024-03-02T12:46:11;20.40;93.70
15386;DHT22;7791;47.246;9.648;2024-03-02T12:48:41;20.50;93.10
15386;DHT22;7791;47.246;9.648;2024-03-02T12:57:33;20.90;92.90
15386;DHT22;7791;47.246;9.648;2024-03-02T13:00:13;20.10;93.60
15386;DHT22;7791;47.246;9.648;2024-03-02T13:02:45;19.90;94.50
15386;DHT22;7791;47.246;9.648;2024-03-02T13:05:36;19.70;95.40
15386;DHT22;7791;47.246;9.648;2024-03-02T13:08:04;19.70;94.40
15386;DHT22;7791;47.246;9.648;2024-03-02T13:13:36;19.30;94.30
15386;DHT22;7791;47.246;9.648;2024-03-02T13:16:15;18.50;96.70
15386;DHT22;7791;47.246;9.648;2024-03-02T13:18:58;18.20;95.90
15386;DHT22;7791;47.246;9.648;2024-03-02T13:21:32;17.50;97.20
15386;DHT22;7791;47.246;9.648;2024-03-02T13:27:24;17.70;98.80
15386;DHT22;7791;47.246;9.648;2024-03-02T13:30:01;17.50;96.50
15386;DHT22;7791;47.246;9.648;2024-03-02T13:32:40;18.00;98.20
15386;DHT22;7791;47.246;9.648;2024-03-02T13:35:30;18.10;96.90
15386;DHT22;7791;47.246;9.648;2024-03-02T13:38:04;17.50;97.70
15386;DHT22;7791;47.246;9.648;2024-03-02T13:40:40;18.10;97.30
15386;DHT22;7791;47.246;9.648;2024-03-02T13:45:57;17.80;96.90
15386;DHT22;7791;47.246;9.648;2024-03-02T13:48:37;18.40;98.20
15386;DHT22;7791;47.246;9.648;2024-03-02T13:51:23;18.40;96.90
15386;DHT22;7791;47.246;9.648;2024-03-02T13:53:49;18.20;97.10
15386;DHT22;7791;47.246;9.648;2024-03-02T13:56:22;18.20;97.40
15386;DHT22;7791;47.246;9.648;2024-03-02T13:59:01;18.20;95.90
15386;DHT22;7791;47.246;9.648;2024-03-02T14:01:38;18.20;95.40
15386;DHT22;7791;47.246;9.648;2024-03-02T14:04:07;18.30;94.60
15386;DHT22;7791;47.246;9.648;2024-03-02T14:06:45;18.10;95.80
15386;DHT22;7791;47.246;9.648;2024-03-02T14:09:17;17.90;94.90
15386;DHT22;7791;47.246;9.648;2024-03-02T14:11:52;17.60;95.70
15386;DHT22;7791;47.246;9.648;2024-03-02T14:14:24;17.40;95.20
15386;DHT22;7791;47.246;9.648;2024-03-02T14:17:01;17.30;96.40
15386;DHT22;7791;47.246;9.648;2024-03-02T14:19:41;17.60;97.00
15386;DHT22;7791;47.246;9.648;2024-03-02T14:22:20;17.60;94.50
15386;DHT22;7791;47.246;9.648;2024-03-02T14:24:59;17.00;95.30
15386;DHT22;7791;47.246;9.648;2024-03-02T14:27:54;16.90;96.00
15386;DHT22;7791;47.246;9.648;2024-03-02T14:30:41;17.00;97.10
15386;DHT22;7791;47.246;9.648;2024-03-02T14:33:21;16.50;96.50
15386;DHT22;7791;47.246;9.648;2024-03-02T14:35:59;16.40;96.70
15386;DHT22;7791;47.246;9.648;2024-03-02T14:44:16;17.00;96.80
15386;DHT22;7791;47.246;9.648;2024-03-02T14:47:05;16.90;97.20
15386;DHT22;7791;47.246;9.648;2024-03-02T14:49:49;17.00;98.70
15386;DHT22;7791;47.246;9.648;2024-03-02T14:52:18;16.50;98.90
15386;DHT22;7791;47.246;9.648;2024-03-02T14:54:56;16.20;99.90
15386;DHT22;7791;47.246;9.648;2024-03-02T14:57:41;16.10;99.90
15386;DHT22;7791;47.246;9.648;2024-03-02T15:00:16;16.30;99.70
15386;DHT22;7791;47.246;9.648;2024-03-02T15:02:50;16.30;99.20
15386;DHT22;7791;47.246;9.648;2024-03-02T15:05:35;16.20;99.70
15386;DHT22;7791;47.246;9.648;2024-03-02T15:08:09;16.00;99.90
15386;DHT22;7791;47.246;9.648;2024-03-02T15:10:41;15.70;99.90
15386;DHT22;7791;47.246;9.648;2024-03-02T15:13:22;15.70;99.90
15386;DHT22;7791;47.246;9.648;2024-03-02T15:16:04;15.60;99.90
15386;DHT22;7791;47.246;9.648;2024-03-02T15:18:38;15.30;99.90
15386;DHT22;7791;47.246;9.648;2024-03-02T15:24:12;14.80;99.90
15386;DHT22;7791;47.246;9.648;2024-03-02T15:26:48;14.50;99.90
15386;DHT22;7791;47.246;9.648;2024-03-02T15:29:30;14.30;99.90
15386;DHT22;7791;47.246;9.648;2024-03-02T15:31:57;14.20;99.90
15386;DHT22;7791;47.246;9.648;2024-03-02T15:34:28;14.30;99.90
15386;DHT22;7791;47.246;9.648;2024-03-02T15:36:59;14.30;99.90
15386;DHT22;7791;47.246;9.648;2024-03-02T15:39:30;14.30;99.90
15386;DHT22;7791;47.246;9.648;2024-03-02T15:42:02;14.30;99.90
15386;DHT22;7791;47.246;9.648;2024-03-02T15:44:37;14.10;99.90
15386;DHT22;7791;47.246;9.648;2024-03-02T15:47:06;13.60;99.90
15386;DHT22;7791;47.246;9.648;2024-03-02T15:49:36;13.20;99.90
15386;DHT22;7791;47.246;9.648;2024-03-02T15:52:09;13.30;99.90
15386;DHT22;7791;47.246;9.648;2024-03-02T15:57:37;13.50;99.90
15386;DHT22;7791;47.246;9.648;2024-03-02T16:00:11;13.30;99.90
15386;DHT22;7791;47.246;9.648;2024-03-02T16:02:42;13.20;99.90
15386;DHT22;7791;47.246;9.648;2024-03-02T16:05:18;13.30;99.90
15386;DHT22;7791;47.246;9.648;2024-03-02T16:10:51;13.20;99.90
15386;DHT22;7791;47.246;9.648;2024-03-02T16:13:27;12.90;99.90
15386;DHT22;7791;47.246;9.648;2024-03-02T16:16:00;12.90;99.90
15386;DHT22;7791;47.246;9.648;2024-03-02T16:18:38;12.80;99.90
15386;DHT22;7791;47.246;9.648;2024-03-02T16:21:18;12.60;99.90
15386;DHT22;7791;47.246;9.648;2024-03-02T16:23:57;12.40;99.90
15386;DHT22;7791;47.246;9.648;2024-03-02T16:26:31;12.20;99.90
15386;DHT22;7791;47.246;9.648;2024-03-02T16:29:23;12.00;99.90
15386;DHT22;7791;47.246;9.648;2024-03-02T16:32:02;11.80;99.90
15386;DHT22;7791;47.246;9.648;2024-03-02T16:34:30;11.60;99.90
15386;DHT22;7791;47.246;9.648;2024-03-02T16:37:12;11.40;99.90
15386;DHT22;7791;47.246;9.648;2024-03-02T16:39:46;11.40;99.90
15386;DHT22;7791;47.246;9.648;2024-03-02T16:42:17;11.30;99.90
15386;DHT22;7791;47.246;9.648;2024-03-02T16:44:57;11.10;99.90
15386;DHT22;7791;47.246;9.648;2024-03-02T16:47:29;10.90;99.90
15386;DHT22;7791;47.246;9.648;2024-03-02T16:50:03;10.80;99.90
15386;DHT22;7791;47.246;9.648;2024-03-02T16:55:20;10.80;99.90
15386;DHT22;7791;47.246;9.648;2024-03-02T16:57:54;10.70;99.90
15386;DHT22;7791;47.246;9.648;2024-03-02T17:06:47;10.40;99.90
15386;DHT22;7791;47.246;9.648;2024-03-02T17:09:23;10.20;99.90
15386;DHT22;7791;47.246;9.648;2024-03-02T17:12:08;9.90;99.90
15386;DHT22;7791;47.246;9.648;2024-03-02T17:14:43;9.90;99.90
15386;DHT22;7791;47.246;9.648;2024-03-02T17:17:24;9.70;99.90
15386;DHT22;7791;47.246;9.648;2024-03-02T17:19:58;9.70;99.90
15386;DHT22;7791;47.246;9.648;2024-03-02T17:22:31;9.60;99.90
15386;DHT22;7791;47.246;9.648;2024-03-02T17:27:49;9.60;99.90
15386;DHT22;7791;47.246;9.648;2024-03-02T17:30:24;9.40;99.90
15386;DHT22;7791;47.246;9.648;2024-03-02T17:32:52;9.40;99.90
15386;DHT22;7791;47.246;9.648;2024-03-02T17:35:32;9.40;99.90
15386;DHT22;7791;47.246;9.648;2024-03-02T17:38:08;9.50;99.90
15386;DHT22;7791;47.246;9.648;2024-03-02T17:40:40;9.50;99.90
15386;DHT22;7791;47.246;9.648;2024-03-02T17:43:07;9.50;99.90
15386;DHT22;7791;47.246;9.648;2024-03-02T17:45:53;9.50;99.90
15386;DHT22;7791;47.246;9.648;2024-03-02T17:48:21;9.40;99.90
15386;DHT22;7791;47.246;9.648;2024-03-02T17:53:55;9.30;99.90
15386;DHT22;7791;47.246;9.648;2024-03-02T17:56:23;9.20;99.90
15386;DHT22;7791;47.246;9.648;2024-03-02T17:59:00;9.10;99.90
15386;DHT22;7791;47.246;9.648;2024-03-02T18:01:28;9.10;99.90
15386;DHT22;7791;47.246;9.648;2024-03-02T18:03:59;9.10;99.90
15386;DHT22;7791;47.246;9.648;2024-03-02T18:06:38;9.20;99.90
15386;DHT22;7791;47.246;9.648;2024-03-02T18:09:17;9.20;99.90
15386;DHT22;7791;47.246;9.648;2024-03-02T18:14:44;9.50;99.90
15386;DHT22;7791;47.246;9.648;2024-03-02T18:17:23;9.80;99.90
15386;DHT22;7791;47.246;9.648;2024-03-02T18:19:57;10.20;99.90
15386;DHT22;7791;47.246;9.648;2024-03-02T18:25:46;10.70;99.90
15386;DHT22;7791;47.246;9.648;2024-03-02T18:28:22;10.80;99.90
15386;DHT22;7791;47.246;9.648;2024-03-02T18:31:05;10.90;99.90
15386;DHT22;7791;47.246;9.648;2024-03-02T18:33:47;10.90;99.90
15386;DHT22;7791;47.246;9.648;2024-03-02T18:36:24;11.00;99.90
15386;DHT22;7791;47.246;9.648;2024-03-02T18:39:07;11.20;99.90
15386;DHT22;7791;47.246;9.648;2024-03-02T18:41:38;11.20;99.90
15386;DHT22;7791;47.246;9.648;2024-03-02T18:44:10;11.30;99.90
15386;DHT22;7791;47.246;9.648;2024-03-02T18:46:38;11.10;99.90
15386;DHT22;7791;47.246;9.648;2024-03-02T18:51:52;11.20;99.90
15386;DHT22;7791;47.246;9.648;2024-03-02T18:54:23;11.10;99.90
15386;DHT22;7791;47.246;9.648;2024-03-02T18:57:09;11.10;99.90
15386;DHT22;7791;47.246;9.648;2024-03-02T18:59:45;11.10;99.90
15386;DHT22;7791;47.246;9.648;2024-03-02T19:02:20;11.10;99.90
15386;DHT22;7791;47.246;9.648;2024-03-02T19:04:54;11.00;99.90
15386;DHT22;7791;47.246;9.648;2024-03-02T19:07:26;10.90;99.90
15386;DHT22;7791;47.246;9.648;2024-03-02T19:10:08;10.80;99.90